Tosyumaru — JD3981 — position and weather

sailwx.info

Track history (hours):
 
Tides and Currents Weather Stations Pressure Air Temp Water Temp Dewpoint Dewpoint Depression Visibility Wind Speed Wind Dir Waves Ship Positions

Tosyumaru

Last reported at 2018-Jul-20 14:00 UTC. Time now 2018-Jul-20 14:09 UTC.
Position N 35°41' E 139°59'.

Length 64 m; draft 4.1 m.

Type: Tanker. MMSI: 431007803.

Date/timePositionNaut miles runAvg speedWind from/ knotsBaromVisibWave heightAir tempDewpointWater temp
2018-Jul-20 14:00N 35°41' E 139°59'0 0.0
2018-Jul-20 13:29N 35°41' E 139°59'0 0.0
2018-Jul-20 12:59N 35°41' E 139°59'0 0.0
2018-Jul-20 12:30N 35°41' E 139°59'0 0.0
2018-Jul-20 12:00N 35°41' E 139°59'0 0.0
2018-Jul-20 11:30N 35°41' E 139°59'0 0.0
2018-Jul-20 11:00N 35°41' E 139°59'0 0.0
2018-Jul-20 10:30N 35°41' E 139°59'0 0.0
2018-Jul-20 10:00N 35°41' E 139°59'0 0.0
2018-Jul-20 09:30N 35°41' E 139°59'0 0.0
2018-Jul-20 09:00N 35°41' E 139°59'0 0.0
2018-Jul-20 08:29N 35°41' E 139°59'7 7.7
2018-Jul-20 07:35N 35°34' E 139°55'213.3
2018-Jul-20 07:27N 35°33' E 139°54'613.1
2018-Jul-20 07:00N 35°30' E 139°48'2 4.2
2018-Jul-20 06:30N 35°31' E 139°46'0 0.0
2018-Jul-20 06:00N 35°31' E 139°46'0 0.0
2018-Jul-20 05:30N 35°31' E 139°46'0 0.1
2018-Jul-20 05:00N 35°31' E 139°46'0 0.0
2018-Jul-20 04:30N 35°31' E 139°46'0 0.0
2018-Jul-20 04:00N 35°31' E 139°46'0 0.1
2018-Jul-20 03:27N 35°31' E 139°46'0 0.0
2018-Jul-20 03:00N 35°31' E 139°46'0 0.0
2018-Jul-20 02:30N 35°31' E 139°46'0 0.0
2018-Jul-20 02:00N 35°31' E 139°46'0 0.0
2018-Jul-20 01:28N 35°31' E 139°46'0 0.1
2018-Jul-20 00:59N 35°31' E 139°46'0 0.1
2018-Jul-20 00:30N 35°31' E 139°46'0 0.0
2018-Jul-20 00:00N 35°31' E 139°46'0 0.0
2018-Jul-19 23:30N 35°31' E 139°46'0 0.0
2018-Jul-19 23:00N 35°31' E 139°46'0 0.0
2018-Jul-19 22:30N 35°31' E 139°46'0 0.0
2018-Jul-19 22:00N 35°31' E 139°46'3 5.4
2018-Jul-19 21:30N 35°30' E 139°48'1 1.6
2018-Jul-19 21:00N 35°29' E 139°49'0 0.0
2018-Jul-19 20:30N 35°29' E 139°49'0 0.1
2018-Jul-19 20:00N 35°29' E 139°49'0 0.1
2018-Jul-19 19:30N 35°29' E 139°49'0 0.0
2018-Jul-19 19:00N 35°29' E 139°49'0 0.0
2018-Jul-19 18:30N 35°29' E 139°49'0 0.1
2018-Jul-19 18:00N 35°29' E 139°49'0 0.0
2018-Jul-19 17:30N 35°29' E 139°49'0 0.1
2018-Jul-19 17:00N 35°29' E 139°49'0 0.0
2018-Jul-19 16:30N 35°29' E 139°49'0 0.0
2018-Jul-19 16:00N 35°29' E 139°49'0 0.0
2018-Jul-19 15:30N 35°29' E 139°49'0 0.0
2018-Jul-19 14:59N 35°29' E 139°49'0 0.0
2018-Jul-19 14:30N 35°29' E 139°49'0 0.0
2018-Jul-19 13:30N 35°29' E 139°49'0 0.0
2018-Jul-19 13:00N 35°29' E 139°49'0 0.0
2018-Jul-19 12:30N 35°29' E 139°49'0 0.0
2018-Jul-19 12:00N 35°29' E 139°49'0 0.1
2018-Jul-19 11:30N 35°29' E 139°49'0 0.0
2018-Jul-19 11:00N 35°29' E 139°49'0 0.0
2018-Jul-19 10:30N 35°29' E 139°49'0 0.0
2018-Jul-19 10:00N 35°29' E 139°49'3 6.5
2018-Jul-19 09:30N 35°26' E 139°47'612.8
2018-Jul-19 09:00N 35°20' E 139°45'611.7
2018-Jul-19 08:30N 35°15' E 139°47'612.2
2018-Jul-19 08:00N 35°09' E 139°45'611.8
2018-Jul-19 07:30N 35°04' E 139°41'612.0
2018-Jul-19 07:00N 34°60' E 139°36'914.0
2018-Jul-19 06:21N 34°55' E 139°26'615.3
2018-Jul-19 05:56N 34°51' E 139°20'22210.6
2018-Jul-18 09:00N 33°54' E 135°00'612.1
2018-Jul-18 08:29N 33°59' E 134°56'812.3
2018-Jul-18 07:52N 34°04' E 134°49'1012.8
2018-Jul-18 07:05N 34°12' E 134°42'213.0
2018-Jul-18 06:58N 34°13' E 134°40'812.8
2018-Jul-18 06:21N 34°17' E 134°32'411.9
2018-Jul-18 06:00N 34°19' E 134°28'611.8
2018-Jul-18 05:30N 34°21' E 134°21'611.9
2018-Jul-18 05:00N 34°23' E 134°15'1 0.1
2018-Jul-17 12:47N 34°24' E 134°13'613.8
2018-Jul-17 12:20N 34°25' E 134°21'812.7
2018-Jul-17 11:43N 34°28' E 134°29'312.0
2018-Jul-17 11:28N 34°29' E 134°33'612.2
2018-Jul-17 11:00N 34°31' E 134°40'612.2
2018-Jul-17 10:29N 34°33' E 134°47'611.7
2018-Jul-17 09:58N 34°35' E 134°53'710.8
2018-Jul-17 09:20N 34°37' E 135°01'3 7.8
2018-Jul-17 09:00N 34°36' E 135°04'611.4
2018-Jul-17 08:30N 34°37' E 135°11'612.0
2018-Jul-17 08:00N 34°38' E 135°18'511.0
2018-Jul-17 07:30N 34°39' E 135°25'0 0.4
2018-Jul-17 07:00N 34°40' E 135°25'0 0.0
2018-Jul-17 06:30N 34°40' E 135°25'0 0.4
2018-Jul-17 06:00N 34°40' E 135°25'0 0.6
2018-Jul-17 05:30N 34°40' E 135°25'0 0.0
2018-Jul-17 05:00N 34°40' E 135°25'0 0.0
2018-Jul-17 04:30N 34°40' E 135°25'0 0.0
2018-Jul-17 04:00N 34°40' E 135°25'0 0.8
2018-Jul-17 03:30N 34°40' E 135°25'0 0.7
2018-Jul-17 03:00N 34°40' E 135°25'0 0.0
2018-Jul-17 02:30N 34°40' E 135°25'0 0.0
2018-Jul-17 02:00N 34°40' E 135°25'0 0.0
2018-Jul-17 01:30N 34°40' E 135°25'0 0.0
2018-Jul-17 01:00N 34°40' E 135°25'0 0.0
2018-Jul-17 00:30N 34°40' E 135°25'4 3.8
2018-Jul-16 23:30N 34°39' E 135°21'0 0.0
2018-Jul-16 23:00N 34°39' E 135°21'0 0.0
2018-Jul-16 22:30N 34°39' E 135°21'0 0.0
2018-Jul-16 22:00N 34°39' E 135°21'0 0.0
2018-Jul-16 21:30N 34°39' E 135°21'0 0.0
2018-Jul-16 21:00N 34°39' E 135°21'0 0.0
2018-Jul-16 20:30N 34°39' E 135°21'0 0.0
2018-Jul-16 20:00N 34°39' E 135°21'0 0.0
2018-Jul-16 19:30N 34°39' E 135°21'0 0.1
2018-Jul-16 19:00N 34°39' E 135°21'0 0.0
2018-Jul-16 18:30N 34°39' E 135°21'0 0.0
2018-Jul-16 18:00N 34°39' E 135°21'0 0.0
2018-Jul-16 17:29N 34°39' E 135°21'0 0.0
2018-Jul-16 17:00N 34°39' E 135°21'0 0.0
2018-Jul-16 16:30N 34°39' E 135°21'0 0.1
2018-Jul-16 16:00N 34°39' E 135°21'0 0.0
2018-Jul-16 15:30N 34°39' E 135°21'0 0.1
2018-Jul-16 15:00N 34°39' E 135°21'0 0.0
2018-Jul-16 14:30N 34°39' E 135°21'0 0.1
2018-Jul-16 14:00N 34°39' E 135°21'510.9
2018-Jul-16 13:30N 34°35' E 135°16'612.0
2018-Jul-16 13:00N 34°30' E 135°12'612.3
2018-Jul-16 12:30N 34°25' E 135°07'713.0
2018-Jul-16 12:00N 34°20' E 135°02'612.6
2018-Jul-16 11:30N 34°14' E 134°59'612.5
2018-Jul-16 11:00N 34°08' E 135°00'612.6
2018-Jul-16 10:31N 34°02' E 135°01'612.6
2018-Jul-16 10:00N 33°56' E 135°02'1012.3
2018-Jul-16 09:11N 33°47' E 135°08'20810.6
2018-Jul-15 13:31N 34°48' E 139°08'111.1
2018-Jul-15 13:25N 34°49' E 139°09'510.6
2018-Jul-15 12:57N 34°53' E 139°13'1910.3
2018-Jul-15 11:06N 35°03' E 139°33'111.4
2018-Jul-15 10:59N 35°04' E 139°34'611.6
2018-Jul-15 10:30N 35°06' E 139°40'510.9
2018-Jul-15 10:00N 35°10' E 139°44'510.5
2018-Jul-15 09:31N 35°15' E 139°46'510.7
2018-Jul-15 09:01N 35°20' E 139°43'510.6
2018-Jul-15 08:30N 35°25' E 139°44'510.7
2018-Jul-15 08:01N 35°28' E 139°49'510.5
2018-Jul-15 07:29N 35°31' E 139°55'510.8
2018-Jul-15 06:59N 35°32' E 140°01'1 0.2
2018-Jul-14 23:07N 35°32' E 140°03'0 3.4
2018-Jul-14 22:59N 35°32' E 140°03'2 0.0
2018-Jul-13 04:04N 35°31' E 140°02'1 8.5
2018-Jul-13 04:00N 35°31' E 140°02'612.3
2018-Jul-13 03:29N 35°31' E 139°54'612.1
2018-Jul-13 03:00N 35°30' E 139°47'2 4.1
2018-Jul-13 02:31N 35°32' E 139°45'0 0.0
2018-Jul-13 02:00N 35°32' E 139°45'0 0.0
2018-Jul-13 01:29N 35°32' E 139°45'0 0.0
2018-Jul-13 00:59N 35°32' E 139°45'0 0.0
2018-Jul-13 00:30N 35°32' E 139°45'0 0.0
2018-Jul-12 23:54N 35°32' E 139°45'0 0.0
2018-Jul-12 23:29N 35°32' E 139°45'0 0.0
2018-Jul-12 22:58N 35°32' E 139°45'2 3.7
2018-Jul-12 22:30N 35°30' E 139°47'2 4.8
2018-Jul-12 22:00N 35°29' E 139°49'0 0.0
2018-Jul-12 21:30N 35°29' E 139°49'0 0.0
2018-Jul-12 21:01N 35°29' E 139°49'0 0.0
2018-Jul-12 20:30N 35°29' E 139°49'0 0.0
2018-Jul-12 20:01N 35°29' E 139°49'0 0.0
2018-Jul-12 19:29N 35°29' E 139°49'0 0.0
2018-Jul-12 19:01N 35°29' E 139°49'4 7.5
2018-Jul-12 18:30N 35°25' E 139°47'612.8
2018-Jul-12 18:01N 35°19' E 139°44'612.2
2018-Jul-12 17:30N 35°13' E 139°47'612.2
2018-Jul-12 17:00N 35°08' E 139°45'612.0
2018-Jul-12 16:31N 35°03' E 139°40'713.1
2018-Jul-12 16:00N 34°59' E 139°33'814.9
2018-Jul-12 15:29N 34°55' E 139°25'229 6.1
2018-Jul-11 02:09N 33°57' E 134°57'1011.5
2018-Jul-11 01:19N 34°04' E 134°49'2112.1
2018-Jul-10 23:33N 34°18' E 134°30'112.7
2018-Jul-10 23:26N 34°18' E 134°28'612.1
2018-Jul-10 22:55N 34°21' E 134°21'  
Track history (hours):
 
Tides and Currents Weather Stations Pressure Air Temp Water Temp Dewpoint Dewpoint Depression Visibility Wind Speed Wind Dir Waves Ship Positions

Tosyumaru

Last reported at 2018-Jul-20 14:00 UTC. Time now 2018-Jul-20 14:09 UTC.
Position N 35°41' E 139°59'.

Length 64 m; draft 4.1 m.

Type: Tanker. MMSI: 431007803.

Date/timePositionNaut miles runAvg speedWind from/ knotsBaromVisibWave heightAir tempDewpointWater temp
2018-Jul-20 14:00N 35°41' E 139°59'0 0.0
2018-Jul-20 13:29N 35°41' E 139°59'0 0.0
2018-Jul-20 12:59N 35°41' E 139°59'0 0.0
2018-Jul-20 12:30N 35°41' E 139°59'0 0.0
2018-Jul-20 12:00N 35°41' E 139°59'0 0.0
2018-Jul-20 11:30N 35°41' E 139°59'0 0.0
2018-Jul-20 11:00N 35°41' E 139°59'0 0.0
2018-Jul-20 10:30N 35°41' E 139°59'0 0.0
2018-Jul-20 10:00N 35°41' E 139°59'0 0.0
2018-Jul-20 09:30N 35°41' E 139°59'0 0.0
2018-Jul-20 09:00N 35°41' E 139°59'0 0.0
2018-Jul-20 08:29N 35°41' E 139°59'7 7.7
2018-Jul-20 07:35N 35°34' E 139°55'213.3
2018-Jul-20 07:27N 35°33' E 139°54'613.1
2018-Jul-20 07:00N 35°30' E 139°48'2 4.2
2018-Jul-20 06:30N 35°31' E 139°46'0 0.0
2018-Jul-20 06:00N 35°31' E 139°46'0 0.0
2018-Jul-20 05:30N 35°31' E 139°46'0 0.1
2018-Jul-20 05:00N 35°31' E 139°46'0 0.0
2018-Jul-20 04:30N 35°31' E 139°46'0 0.0
2018-Jul-20 04:00N 35°31' E 139°46'0 0.1
2018-Jul-20 03:27N 35°31' E 139°46'0 0.0
2018-Jul-20 03:00N 35°31' E 139°46'0 0.0
2018-Jul-20 02:30N 35°31' E 139°46'0 0.0
2018-Jul-20 02:00N 35°31' E 139°46'0 0.0
2018-Jul-20 01:28N 35°31' E 139°46'0 0.1
2018-Jul-20 00:59N 35°31' E 139°46'0 0.1
2018-Jul-20 00:30N 35°31' E 139°46'0 0.0
2018-Jul-20 00:00N 35°31' E 139°46'0 0.0
2018-Jul-19 23:30N 35°31' E 139°46'0 0.0
2018-Jul-19 23:00N 35°31' E 139°46'0 0.0
2018-Jul-19 22:30N 35°31' E 139°46'0 0.0
2018-Jul-19 22:00N 35°31' E 139°46'3 5.4
2018-Jul-19 21:30N 35°30' E 139°48'1 1.6
2018-Jul-19 21:00N 35°29' E 139°49'0 0.0
2018-Jul-19 20:30N 35°29' E 139°49'0 0.1
2018-Jul-19 20:00N 35°29' E 139°49'0 0.1
2018-Jul-19 19:30N 35°29' E 139°49'0 0.0
2018-Jul-19 19:00N 35°29' E 139°49'0 0.0
2018-Jul-19 18:30N 35°29' E 139°49'0 0.1
2018-Jul-19 18:00N 35°29' E 139°49'0 0.0
2018-Jul-19 17:30N 35°29' E 139°49'0 0.1
2018-Jul-19 17:00N 35°29' E 139°49'0 0.0
2018-Jul-19 16:30N 35°29' E 139°49'0 0.0
2018-Jul-19 16:00N 35°29' E 139°49'0 0.0
2018-Jul-19 15:30N 35°29' E 139°49'0 0.0
2018-Jul-19 14:59N 35°29' E 139°49'0 0.0
2018-Jul-19 14:30N 35°29' E 139°49'0 0.0
2018-Jul-19 13:30N 35°29' E 139°49'0 0.0
2018-Jul-19 13:00N 35°29' E 139°49'0 0.0
2018-Jul-19 12:30N 35°29' E 139°49'0 0.0
2018-Jul-19 12:00N 35°29' E 139°49'0 0.1
2018-Jul-19 11:30N 35°29' E 139°49'0 0.0
2018-Jul-19 11:00N 35°29' E 139°49'0 0.0
2018-Jul-19 10:30N 35°29' E 139°49'0 0.0
2018-Jul-19 10:00N 35°29' E 139°49'3 6.5
2018-Jul-19 09:30N 35°26' E 139°47'612.8
2018-Jul-19 09:00N 35°20' E 139°45'611.7
2018-Jul-19 08:30N 35°15' E 139°47'612.2
2018-Jul-19 08:00N 35°09' E 139°45'611.8
2018-Jul-19 07:30N 35°04' E 139°41'612.0
2018-Jul-19 07:00N 34°60' E 139°36'914.0
2018-Jul-19 06:21N 34°55' E 139°26'615.3
2018-Jul-19 05:56N 34°51' E 139°20'22210.6
2018-Jul-18 09:00N 33°54' E 135°00'612.1
2018-Jul-18 08:29N 33°59' E 134°56'812.3
2018-Jul-18 07:52N 34°04' E 134°49'1012.8
2018-Jul-18 07:05N 34°12' E 134°42'213.0
2018-Jul-18 06:58N 34°13' E 134°40'812.8
2018-Jul-18 06:21N 34°17' E 134°32'411.9
2018-Jul-18 06:00N 34°19' E 134°28'611.8
2018-Jul-18 05:30N 34°21' E 134°21'611.9
2018-Jul-18 05:00N 34°23' E 134°15'1 0.1
2018-Jul-17 12:47N 34°24' E 134°13'613.8
2018-Jul-17 12:20N 34°25' E 134°21'812.7
2018-Jul-17 11:43N 34°28' E 134°29'312.0
2018-Jul-17 11:28N 34°29' E 134°33'612.2
2018-Jul-17 11:00N 34°31' E 134°40'612.2
2018-Jul-17 10:29N 34°33' E 134°47'611.7
2018-Jul-17 09:58N 34°35' E 134°53'710.8
2018-Jul-17 09:20N 34°37' E 135°01'3 7.8
2018-Jul-17 09:00N 34°36' E 135°04'611.4
2018-Jul-17 08:30N 34°37' E 135°11'612.0
2018-Jul-17 08:00N 34°38' E 135°18'511.0
2018-Jul-17 07:30N 34°39' E 135°25'0 0.4
2018-Jul-17 07:00N 34°40' E 135°25'0 0.0
2018-Jul-17 06:30N 34°40' E 135°25'0 0.4
2018-Jul-17 06:00N 34°40' E 135°25'0 0.6
2018-Jul-17 05:30N 34°40' E 135°25'0 0.0
2018-Jul-17 05:00N 34°40' E 135°25'0 0.0
2018-Jul-17 04:30N 34°40' E 135°25'0 0.0
2018-Jul-17 04:00N 34°40' E 135°25'0 0.8
2018-Jul-17 03:30N 34°40' E 135°25'0 0.7
2018-Jul-17 03:00N 34°40' E 135°25'0 0.0
2018-Jul-17 02:30N 34°40' E 135°25'0 0.0
2018-Jul-17 02:00N 34°40' E 135°25'0 0.0
2018-Jul-17 01:30N 34°40' E 135°25'0 0.0
2018-Jul-17 01:00N 34°40' E 135°25'0 0.0
2018-Jul-17 00:30N 34°40' E 135°25'4 3.8
2018-Jul-16 23:30N 34°39' E 135°21'0 0.0
2018-Jul-16 23:00N 34°39' E 135°21'0 0.0
2018-Jul-16 22:30N 34°39' E 135°21'0 0.0
2018-Jul-16 22:00N 34°39' E 135°21'0 0.0
2018-Jul-16 21:30N 34°39' E 135°21'0 0.0
2018-Jul-16 21:00N 34°39' E 135°21'0 0.0
2018-Jul-16 20:30N 34°39' E 135°21'0 0.0
2018-Jul-16 20:00N 34°39' E 135°21'0 0.0
2018-Jul-16 19:30N 34°39' E 135°21'0 0.1
2018-Jul-16 19:00N 34°39' E 135°21'0 0.0
2018-Jul-16 18:30N 34°39' E 135°21'0 0.0
2018-Jul-16 18:00N 34°39' E 135°21'0 0.0
2018-Jul-16 17:29N 34°39' E 135°21'0 0.0
2018-Jul-16 17:00N 34°39' E 135°21'0 0.0
2018-Jul-16 16:30N 34°39' E 135°21'0 0.1
2018-Jul-16 16:00N 34°39' E 135°21'0 0.0
2018-Jul-16 15:30N 34°39' E 135°21'0 0.1
2018-Jul-16 15:00N 34°39' E 135°21'0 0.0
2018-Jul-16 14:30N 34°39' E 135°21'0 0.1
2018-Jul-16 14:00N 34°39' E 135°21'510.9
2018-Jul-16 13:30N 34°35' E 135°16'612.0
2018-Jul-16 13:00N 34°30' E 135°12'612.3
2018-Jul-16 12:30N 34°25' E 135°07'713.0
2018-Jul-16 12:00N 34°20' E 135°02'612.6
2018-Jul-16 11:30N 34°14' E 134°59'612.5
2018-Jul-16 11:00N 34°08' E 135°00'612.6
2018-Jul-16 10:31N 34°02' E 135°01'612.6
2018-Jul-16 10:00N 33°56' E 135°02'1012.3
2018-Jul-16 09:11N 33°47' E 135°08'20810.6
2018-Jul-15 13:31N 34°48' E 139°08'111.1
2018-Jul-15 13:25N 34°49' E 139°09'510.6
2018-Jul-15 12:57N 34°53' E 139°13'1910.3
2018-Jul-15 11:06N 35°03' E 139°33'111.4
2018-Jul-15 10:59N 35°04' E 139°34'611.6
2018-Jul-15 10:30N 35°06' E 139°40'510.9
2018-Jul-15 10:00N 35°10' E 139°44'510.5
2018-Jul-15 09:31N 35°15' E 139°46'510.7
2018-Jul-15 09:01N 35°20' E 139°43'510.6
2018-Jul-15 08:30N 35°25' E 139°44'510.7
2018-Jul-15 08:01N 35°28' E 139°49'510.5
2018-Jul-15 07:29N 35°31' E 139°55'510.8
2018-Jul-15 06:59N 35°32' E 140°01'1 0.2
2018-Jul-14 23:07N 35°32' E 140°03'0 3.4
2018-Jul-14 22:59N 35°32' E 140°03'2 0.0
2018-Jul-13 04:04N 35°31' E 140°02'1 8.5
2018-Jul-13 04:00N 35°31' E 140°02'612.3
2018-Jul-13 03:29N 35°31' E 139°54'612.1
2018-Jul-13 03:00N 35°30' E 139°47'2 4.1
2018-Jul-13 02:31N 35°32' E 139°45'0 0.0
2018-Jul-13 02:00N 35°32' E 139°45'0 0.0
2018-Jul-13 01:29N 35°32' E 139°45'0 0.0
2018-Jul-13 00:59N 35°32' E 139°45'0 0.0
2018-Jul-13 00:30N 35°32' E 139°45'0 0.0
2018-Jul-12 23:54N 35°32' E 139°45'0 0.0
2018-Jul-12 23:29N 35°32' E 139°45'0 0.0
2018-Jul-12 22:58N 35°32' E 139°45'2 3.7
2018-Jul-12 22:30N 35°30' E 139°47'2 4.8
2018-Jul-12 22:00N 35°29' E 139°49'0 0.0
2018-Jul-12 21:30N 35°29' E 139°49'0 0.0
2018-Jul-12 21:01N 35°29' E 139°49'0 0.0
2018-Jul-12 20:30N 35°29' E 139°49'0 0.0
2018-Jul-12 20:01N 35°29' E 139°49'0 0.0
2018-Jul-12 19:29N 35°29' E 139°49'0 0.0
2018-Jul-12 19:01N 35°29' E 139°49'4 7.5
2018-Jul-12 18:30N 35°25' E 139°47'612.8
2018-Jul-12 18:01N 35°19' E 139°44'612.2
2018-Jul-12 17:30N 35°13' E 139°47'612.2
2018-Jul-12 17:00N 35°08' E 139°45'612.0
2018-Jul-12 16:31N 35°03' E 139°40'713.1
2018-Jul-12 16:00N 34°59' E 139°33'814.9
2018-Jul-12 15:29N 34°55' E 139°25'229 6.1
2018-Jul-11 02:09N 33°57' E 134°57'1011.5
2018-Jul-11 01:19N 34°04' E 134°49'2112.1
2018-Jul-10 23:33N 34°18' E 134°30'112.7
2018-Jul-10 23:26N 34°18' E 134°28'612.1
2018-Jul-10 22:55N 34°21' E 134°21'  

Dump ship's entire track history